sensor_id;sensor_type;location;lat;lon;timestamp;pressure;altitude;pressure_sealevel;temperature;humidity
10202;BME280;5143;42.584;23.164;2022-09-09T00:01:25;92881.97;;;15.35;100.00
10202;BME280;5143;42.584;23.164;2022-09-09T00:04:00;92866.94;;;15.30;100.00
10202;BME280;5143;42.584;23.164;2022-09-09T00:06:31;92874.94;;;15.34;100.00
10202;BME280;5143;42.584;23.164;2022-09-09T00:09:06;92867.69;;;15.31;100.00
10202;BME280;5143;42.584;23.164;2022-09-09T00:11:40;92872.97;;;15.29;100.00
10202;BME280;5143;42.584;23.164;2022-09-09T00:14:13;92871.22;;;15.31;100.00
10202;BME280;5143;42.584;23.164;2022-09-09T00:16:45;92863.94;;;15.34;100.00
10202;BME280;5143;42.584;23.164;2022-09-09T00:19:20;92849.41;;;15.50;100.00
10202;BME280;5143;42.584;23.164;2022-09-09T00:21:53;92846.31;;;15.70;100.00
10202;BME280;5143;42.584;23.164;2022-09-09T00:24:29;92841.63;;;16.01;100.00
10202;BME280;5143;42.584;23.164;2022-09-09T00:27:03;92824.06;;;16.39;100.00
10202;BME280;5143;42.584;23.164;2022-09-09T00:29:37;92829.03;;;16.76;100.00
10202;BME280;5143;42.584;23.164;2022-09-09T00:32:13;92816.53;;;16.99;100.00
10202;BME280;5143;42.584;23.164;2022-09-09T00:34:47;92819.75;;;17.46;100.00
10202;BME280;5143;42.584;23.164;2022-09-09T00:37:16;92824.94;;;17.74;100.00
10202;BME280;5143;42.584;23.164;2022-09-09T00:39:47;92823.50;;;18.04;100.00
10202;BME280;5143;42.584;23.164;2022-09-09T00:42:16;92820.94;;;18.25;100.00
10202;BME280;5143;42.584;23.164;2022-09-09T00:44:53;92823.81;;;18.33;100.00
10202;BME280;5143;42.584;23.164;2022-09-09T00:47:44;92806.81;;;18.28;100.00
10202;BME280;5143;42.584;23.164;2022-09-09T00:50:27;92820.88;;;18.44;100.00
10202;BME280;5143;42.584;23.164;2022-09-09T00:53:05;92831.06;;;18.36;100.00
10202;BME280;5143;42.584;23.164;2022-09-09T00:55:45;92824.44;;;18.25;100.00
10202;BME280;5143;42.584;23.164;2022-09-09T00:58:15;92821.03;;;18.19;100.00
10202;BME280;5143;42.584;23.164;2022-09-09T01:00:44;92826.72;;;18.08;100.00
10202;BME280;5143;42.584;23.164;2022-09-09T01:03:33;92828.38;;;17.98;100.00
10202;BME280;5143;42.584;23.164;2022-09-09T01:06:13;92824.19;;;17.92;100.00
10202;BME280;5143;42.584;23.164;2022-09-09T01:09:02;92826.34;;;17.80;100.00
10202;BME280;5143;42.584;23.164;2022-09-09T01:11:37;92833.72;;;17.72;100.00
10202;BME280;5143;42.584;23.164;2022-09-09T01:14:27;92844.63;;;17.64;100.00
10202;BME280;5143;42.584;23.164;2022-09-09T01:17:00;92836.88;;;17.63;100.00
10202;BME280;5143;42.584;23.164;2022-09-09T01:19:39;92828.88;;;17.59;100.00
10202;BME280;5143;42.584;23.164;2022-09-09T01:22:18;92841.72;;;17.57;100.00
10202;BME280;5143;42.584;23.164;2022-09-09T01:25:02;92840.09;;;17.43;100.00
10202;BME280;5143;42.584;23.164;2022-09-09T01:27:34;92836.94;;;17.33;100.00
10202;BME280;5143;42.584;23.164;2022-09-09T01:30:05;92835.59;;;17.21;100.00
10202;BME280;5143;42.584;23.164;2022-09-09T01:32:40;92831.16;;;17.13;100.00
10202;BME280;5143;42.584;23.164;2022-09-09T01:35:10;92830.47;;;17.06;100.00
10202;BME280;5143;42.584;23.164;2022-09-09T01:37:39;92834.16;;;16.90;100.00
10202;BME280;5143;42.584;23.164;2022-09-09T01:40:07;92826.75;;;16.80;100.00
10202;BME280;5143;42.584;23.164;2022-09-09T01:42:35;92825.53;;;16.75;100.00
10202;BME280;5143;42.584;23.164;2022-09-09T01:45:03;92827.06;;;16.71;100.00
10202;BME280;5143;42.584;23.164;2022-09-09T01:47:30;92823.75;;;16.78;100.00
10202;BME280;5143;42.584;23.164;2022-09-09T01:49:57;92824.16;;;16.87;100.00
10202;BME280;5143;42.584;23.164;2022-09-09T01:52:25;92824.63;;;16.91;100.00
10202;BME280;5143;42.584;23.164;2022-09-09T01:54:51;92820.94;;;17.07;100.00
10202;BME280;5143;42.584;23.164;2022-09-09T01:57:22;92817.91;;;17.11;100.00
10202;BME280;5143;42.584;23.164;2022-09-09T02:00:00;92810.81;;;17.16;100.00
10202;BME280;5143;42.584;23.164;2022-09-09T02:02:32;92812.88;;;17.09;100.00
10202;BME280;5143;42.584;23.164;2022-09-09T02:05:07;92815.97;;;17.00;100.00
10202;BME280;5143;42.584;23.164;2022-09-09T02:07:40;92813.94;;;16.82;100.00
10202;BME280;5143;42.584;23.164;2022-09-09T02:10:11;92822.84;;;16.70;100.00
10202;BME280;5143;42.584;23.164;2022-09-09T02:12:41;92821.97;;;16.56;100.00
10202;BME280;5143;42.584;23.164;2022-09-09T02:15:17;92811.28;;;16.41;100.00
10202;BME280;5143;42.584;23.164;2022-09-09T02:17:46;92822.13;;;16.34;100.00
10202;BME280;5143;42.584;23.164;2022-09-09T02:20:14;92818.66;;;16.28;100.00
10202;BME280;5143;42.584;23.164;2022-09-09T02:22:44;92821.19;;;16.26;100.00
10202;BME280;5143;42.584;23.164;2022-09-09T02:25:14;92814.03;;;16.12;100.00
10202;BME280;5143;42.584;23.164;2022-09-09T02:27:43;92831.78;;;16.11;100.00
10202;BME280;5143;42.584;23.164;2022-09-09T02:30:13;92826.84;;;16.04;100.00
10202;BME280;5143;42.584;23.164;2022-09-09T02:32:42;92831.88;;;16.00;100.00
10202;BME280;5143;42.584;23.164;2022-09-09T02:35:12;92843.97;;;15.85;100.00
10202;BME280;5143;42.584;23.164;2022-09-09T02:37:42;92841.03;;;15.72;100.00
10202;BME280;5143;42.584;23.164;2022-09-09T02:40:12;92854.06;;;15.66;100.00
10202;BME280;5143;42.584;23.164;2022-09-09T02:42:41;92856.59;;;15.64;100.00
10202;BME280;5143;42.584;23.164;2022-09-09T02:45:09;92853.44;;;15.49;100.00
10202;BME280;5143;42.584;23.164;2022-09-09T02:47:44;92849.66;;;15.41;100.00
10202;BME280;5143;42.584;23.164;2022-09-09T02:50:17;92851.19;;;15.31;100.00
10202;BME280;5143;42.584;23.164;2022-09-09T02:52:55;92855.69;;;15.34;100.00
10202;BME280;5143;42.584;23.164;2022-09-09T02:55:35;92856.69;;;15.31;100.00
10202;BME280;5143;42.584;23.164;2022-09-09T02:58:05;92857.75;;;15.17;100.00
10202;BME280;5143;42.584;23.164;2022-09-09T03:00:35;92856.28;;;15.10;100.00
10202;BME280;5143;42.584;23.164;2022-09-09T03:03:04;92848.28;;;15.07;100.00
10202;BME280;5143;42.584;23.164;2022-09-09T03:05:31;92852.56;;;15.02;100.00
10202;BME280;5143;42.584;23.164;2022-09-09T03:07:58;92852.06;;;14.98;100.00
10202;BME280;5143;42.584;23.164;2022-09-09T03:10:25;92858.31;;;14.99;100.00
10202;BME280;5143;42.584;23.164;2022-09-09T03:12:52;92863.81;;;14.93;100.00
10202;BME280;5143;42.584;23.164;2022-09-09T03:15:18;92862.81;;;14.91;100.00
10202;BME280;5143;42.584;23.164;2022-09-09T03:17:45;92844.09;;;14.78;100.00
10202;BME280;5143;42.584;23.164;2022-09-09T03:20:13;92845.34;;;14.83;100.00
10202;BME280;5143;42.584;23.164;2022-09-09T03:22:40;92849.59;;;14.78;100.00
10202;BME280;5143;42.584;23.164;2022-09-09T03:25:09;92837.88;;;14.77;100.00
10202;BME280;5143;42.584;23.164;2022-09-09T03:27:35;92832.09;;;14.75;100.00
10202;BME280;5143;42.584;23.164;2022-09-09T03:30:02;92846.84;;;14.72;100.00
10202;BME280;5143;42.584;23.164;2022-09-09T03:32:30;92848.38;;;14.68;100.00
10202;BME280;5143;42.584;23.164;2022-09-09T03:34:57;92845.38;;;14.60;100.00
10202;BME280;5143;42.584;23.164;2022-09-09T03:37:25;92852.63;;;14.58;100.00
10202;BME280;5143;42.584;23.164;2022-09-09T03:39:52;92850.13;;;14.54;100.00
10202;BME280;5143;42.584;23.164;2022-09-09T03:42:20;92862.34;;;14.53;100.00
10202;BME280;5143;42.584;23.164;2022-09-09T03:44:47;92861.13;;;14.54;100.00
10202;BME280;5143;42.584;23.164;2022-09-09T03:47:16;92853.88;;;14.51;100.00
10202;BME280;5143;42.584;23.164;2022-09-09T03:49:43;92862.63;;;14.50;100.00
10202;BME280;5143;42.584;23.164;2022-09-09T03:52:10;92855.63;;;14.49;100.00
10202;BME280;5143;42.584;23.164;2022-09-09T03:54:38;92853.13;;;14.51;100.00
10202;BME280;5143;42.584;23.164;2022-09-09T03:57:06;92848.63;;;14.53;100.00
10202;BME280;5143;42.584;23.164;2022-09-09T03:59:33;92849.63;;;14.56;100.00
10202;BME280;5143;42.584;23.164;2022-09-09T04:02:00;92850.63;;;14.58;100.00
10202;BME280;5143;42.584;23.164;2022-09-09T04:04:27;92859.88;;;14.55;100.00
10202;BME280;5143;42.584;23.164;2022-09-09T04:06:54;92861.88;;;14.55;100.00
10202;BME280;5143;42.584;23.164;2022-09-09T04:09:21;92851.13;;;14.57;100.00
10202;BME280;5143;42.584;23.164;2022-09-09T04:11:49;92865.84;;;14.59;100.00
10202;BME280;5143;42.584;23.164;2022-09-09T04:14:17;92850.13;;;14.60;100.00
10202;BME280;5143;42.584;23.164;2022-09-09T04:16:43;92855.09;;;14.61;100.00
10202;BME280;5143;42.584;23.164;2022-09-09T04:19:11;92860.34;;;14.65;100.00
10202;BME280;5143;42.584;23.164;2022-09-09T04:21:39;92854.09;;;14.70;100.00
10202;BME280;5143;42.584;23.164;2022-09-09T04:24:06;92853.84;;;14.73;100.00
10202;BME280;5143;42.584;23.164;2022-09-09T04:26:34;92852.09;;;14.76;100.00
10202;BME280;5143;42.584;23.164;2022-09-09T04:29:04;92852.09;;;14.82;100.00
10202;BME280;5143;42.584;23.164;2022-09-09T04:31:33;92854.34;;;14.89;100.00
10202;BME280;5143;42.584;23.164;2022-09-09T04:34:00;92851.81;;;14.96;100.00
10202;BME280;5143;42.584;23.164;2022-09-09T04:36:30;92857.53;;;15.04;100.00
10202;BME280;5143;42.584;23.164;2022-09-09T04:38:58;92860.25;;;15.15;100.00
10202;BME280;5143;42.584;23.164;2022-09-09T04:41:25;92855.69;;;15.34;100.00
10202;BME280;5143;42.584;23.164;2022-09-09T04:43:51;92862.91;;;15.54;100.00
10202;BME280;5143;42.584;23.164;2022-09-09T04:46:20;92856.03;;;15.71;100.00
10202;BME280;5143;42.584;23.164;2022-09-09T04:48:48;92859.00;;;15.84;100.00
10202;BME280;5143;42.584;23.164;2022-09-09T04:51:15;92855.56;;;16.14;100.00
10202;BME280;5143;42.584;23.164;2022-09-09T04:53:42;92855.63;;;16.38;100.00
10202;BME280;5143;42.584;23.164;2022-09-09T04:56:11;92861.06;;;16.49;100.00
10202;BME280;5143;42.584;23.164;2022-09-09T04:58:38;92855.03;;;16.56;100.00
10202;BME280;5143;42.584;23.164;2022-09-09T05:01:08;92837.53;;;16.48;100.00
10202;BME280;5143;42.584;23.164;2022-09-09T05:03:36;92841.00;;;16.54;100.00
10202;BME280;5143;42.584;23.164;2022-09-09T05:06:05;92827.13;;;16.30;100.00
10202;BME280;5143;42.584;23.164;2022-09-09T05:08:34;92817.31;;;16.34;100.00
10202;BME280;5143;42.584;23.164;2022-09-09T05:11:00;92822.88;;;16.64;100.00
10202;BME280;5143;42.584;23.164;2022-09-09T05:13:28;92830.38;;;17.79;100.00
10202;BME280;5143;42.584;23.164;2022-09-09T05:15:56;92844.47;;;19.21;100.00
10202;BME280;5143;42.584;23.164;2022-09-09T05:18:23;92851.81;;;20.86;100.00
10202;BME280;5143;42.584;23.164;2022-09-09T05:20:51;92832.31;;;22.19;100.00
10202;BME280;5143;42.584;23.164;2022-09-09T05:23:19;92835.63;;;23.52;97.45
10202;BME280;5143;42.584;23.164;2022-09-09T05:25:55;92844.91;;;24.97;85.64
10202;BME280;5143;42.584;23.164;2022-09-09T05:28:23;92841.88;;;25.52;77.89
10202;BME280;5143;42.584;23.164;2022-09-09T05:30:58;92848.47;;;26.50;73.16
10202;BME280;5143;42.584;23.164;2022-09-09T05:33:27;92837.53;;;26.71;68.84
10202;BME280;5143;42.584;23.164;2022-09-09T05:35:59;92826.59;;;27.19;65.94
10202;BME280;5143;42.584;23.164;2022-09-09T05:38:27;92829.72;;;27.78;64.13
10202;BME280;5143;42.584;23.164;2022-09-09T05:40:54;92831.84;;;28.16;62.13
10202;BME280;5143;42.584;23.164;2022-09-09T05:43:22;92844.56;;;28.65;59.18
10202;BME280;5143;42.584;23.164;2022-09-09T05:45:58;92843.41;;;28.99;57.69
10202;BME280;5143;42.584;23.164;2022-09-09T05:48:27;92858.00;;;29.26;57.55
10202;BME280;5143;42.584;23.164;2022-09-09T05:50:55;92870.63;;;29.87;55.56
10202;BME280;5143;42.584;23.164;2022-09-09T05:53:23;92861.19;;;29.72;54.69
10202;BME280;5143;42.584;23.164;2022-09-09T05:55:50;92870.38;;;29.83;54.79
10202;BME280;5143;42.584;23.164;2022-09-09T05:58:17;92874.34;;;30.10;53.42
10202;BME280;5143;42.584;23.164;2022-09-09T06:00:44;92870.97;;;30.23;52.47
10202;BME280;5143;42.584;23.164;2022-09-09T06:03:11;92875.13;;;29.70;52.32
10202;BME280;5143;42.584;23.164;2022-09-09T06:05:38;92879.66;;;29.54;52.05
10202;BME280;5143;42.584;23.164;2022-09-09T06:08:05;92880.97;;;29.13;52.00
10202;BME280;5143;42.584;23.164;2022-09-09T06:10:34;92887.66;;;29.48;51.82
10202;BME280;5143;42.584;23.164;2022-09-09T06:13:01;92893.56;;;30.14;50.99
10202;BME280;5143;42.584;23.164;2022-09-09T06:15:28;92900.03;;;30.68;49.82
10202;BME280;5143;42.584;23.164;2022-09-09T06:17:56;92893.31;;;30.52;49.13
10202;BME280;5143;42.584;23.164;2022-09-09T06:20:22;92892.53;;;30.40;49.25
10202;BME280;5143;42.584;23.164;2022-09-09T06:22:50;92888.03;;;30.79;47.83
10202;BME280;5143;42.584;23.164;2022-09-09T06:25:16;92892.69;;;31.08;46.76
10202;BME280;5143;42.584;23.164;2022-09-09T06:27:48;92890.38;;;31.16;46.05
10202;BME280;5143;42.584;23.164;2022-09-09T06:30:15;92892.94;;;31.56;45.61
10202;BME280;5143;42.584;23.164;2022-09-09T06:32:42;92882.75;;;31.74;45.16
10202;BME280;5143;42.584;23.164;2022-09-09T06:35:09;92884.44;;;32.14;44.51
10202;BME280;5143;42.584;23.164;2022-09-09T06:37:36;92878.16;;;32.27;44.29
10202;BME280;5143;42.584;23.164;2022-09-09T06:40:03;92874.28;;;31.74;44.20
10202;BME280;5143;42.584;23.164;2022-09-09T06:42:31;92884.66;;;32.78;43.71
10202;BME280;5143;42.584;23.164;2022-09-09T06:44:59;92881.63;;;32.74;43.32
10202;BME280;5143;42.584;23.164;2022-09-09T06:47:26;92882.25;;;30.99;46.19
10202;BME280;5143;42.584;23.164;2022-09-09T06:49:54;92888.81;;;32.40;44.60
10202;BME280;5143;42.584;23.164;2022-09-09T06:52:21;92890.34;;;33.03;43.26
10202;BME280;5143;42.584;23.164;2022-09-09T06:54:50;92899.81;;;33.86;42.05
10202;BME280;5143;42.584;23.164;2022-09-09T06:57:16;92902.50;;;34.22;41.24
10202;BME280;5143;42.584;23.164;2022-09-09T06:59:43;92904.47;;;34.06;41.25
10202;BME280;5143;42.584;23.164;2022-09-09T07:02:11;92888.97;;;33.04;41.21
10202;BME280;5143;42.584;23.164;2022-09-09T07:04:38;92897.00;;;32.71;42.35
10202;BME280;5143;42.584;23.164;2022-09-09T07:07:05;92874.13;;;31.95;42.50
10202;BME280;5143;42.584;23.164;2022-09-09T07:09:33;92888.34;;;32.44;41.62
10202;BME280;5143;42.584;23.164;2022-09-09T07:12:01;92898.44;;;32.35;41.32
10202;BME280;5143;42.584;23.164;2022-09-09T07:14:27;92887.66;;;31.85;43.31
10202;BME280;5143;42.584;23.164;2022-09-09T07:16:54;92891.13;;;31.16;43.95
10202;BME280;5143;42.584;23.164;2022-09-09T07:19:23;92894.78;;;31.75;44.55
10202;BME280;5143;42.584;23.164;2022-09-09T07:21:50;92883.69;;;32.25;43.04
10202;BME280;5143;42.584;23.164;2022-09-09T07:24:17;92890.03;;;32.49;41.20
10202;BME280;5143;42.584;23.164;2022-09-09T07:26:44;92880.88;;;31.44;42.19
10202;BME280;5143;42.584;23.164;2022-09-09T07:29:11;92881.81;;;31.25;44.74
10202;BME280;5143;42.584;23.164;2022-09-09T07:31:39;92874.66;;;30.68;43.24
10202;BME280;5143;42.584;23.164;2022-09-09T07:34:06;92878.50;;;30.84;45.09
10202;BME280;5143;42.584;23.164;2022-09-09T07:36:37;92876.16;;;30.48;44.31
10202;BME280;5143;42.584;23.164;2022-09-09T07:39:06;92873.59;;;29.89;45.89
10202;BME280;5143;42.584;23.164;2022-09-09T07:41:35;92886.31;;;29.90;45.62
10202;BME280;5143;42.584;23.164;2022-09-09T07:44:10;92886.06;;;29.76;45.33
10202;BME280;5143;42.584;23.164;2022-09-09T07:46:38;92882.91;;;29.01;45.45
10202;BME280;5143;42.584;23.164;2022-09-09T07:49:07;92874.41;;;29.20;47.01
10202;BME280;5143;42.584;23.164;2022-09-09T07:51:37;92881.28;;;29.57;46.16
10202;BME280;5143;42.584;23.164;2022-09-09T07:54:06;92892.25;;;30.15;45.19
10202;BME280;5143;42.584;23.164;2022-09-09T07:56:33;92889.00;;;29.88;45.66
10202;BME280;5143;42.584;23.164;2022-09-09T07:59:00;92888.28;;;29.47;46.08
10202;BME280;5143;42.584;23.164;2022-09-09T08:01:31;92885.31;;;28.95;48.46
10202;BME280;5143;42.584;23.164;2022-09-09T08:04:00;92884.78;;;28.67;48.88
10202;BME280;5143;42.584;23.164;2022-09-09T08:06:30;92879.22;;;27.93;49.85
10202;BME280;5143;42.584;23.164;2022-09-09T08:08:59;92886.19;;;28.01;49.25
10202;BME280;5143;42.584;23.164;2022-09-09T08:11:27;92876.50;;;27.30;51.20
10202;BME280;5143;42.584;23.164;2022-09-09T08:13:55;92886.25;;;27.02;53.00
10202;BME280;5143;42.584;23.164;2022-09-09T08:16:23;92882.00;;;26.84;53.26
10202;BME280;5143;42.584;23.164;2022-09-09T08:18:51;92889.28;;;27.14;53.67
10202;BME280;5143;42.584;23.164;2022-09-09T08:21:21;92876.94;;;27.26;52.85
10202;BME280;5143;42.584;23.164;2022-09-09T08:23:50;92881.59;;;27.41;54.46
10202;BME280;5143;42.584;23.164;2022-09-09T08:26:20;92883.53;;;27.48;54.20
10202;BME280;5143;42.584;23.164;2022-09-09T08:28:49;92882.56;;;27.72;52.92
10202;BME280;5143;42.584;23.164;2022-09-09T08:31:18;92877.78;;;27.46;54.73
10202;BME280;5143;42.584;23.164;2022-09-09T08:33:47;92888.91;;;27.36;56.77
10202;BME280;5143;42.584;23.164;2022-09-09T08:36:16;92897.75;;;27.60;55.19
10202;BME280;5143;42.584;23.164;2022-09-09T08:38:46;92895.56;;;27.68;54.04
10202;BME280;5143;42.584;23.164;2022-09-09T08:41:49;92887.53;;;27.55;56.04
10202;BME280;5143;42.584;23.164;2022-09-09T08:44:25;92884.84;;;27.47;56.38
10202;BME280;5143;42.584;23.164;2022-09-09T08:47:04;92889.31;;;27.23;56.17
10202;BME280;5143;42.584;23.164;2022-09-09T08:49:55;92884.13;;;27.20;55.35
10202;BME280;5143;42.584;23.164;2022-09-09T08:52:29;92893.84;;;27.45;54.98
10202;BME280;5143;42.584;23.164;2022-09-09T08:55:03;92879.69;;;27.17;56.29
10202;BME280;5143;42.584;23.164;2022-09-09T08:57:32;92874.47;;;27.76;56.23
10202;BME280;5143;42.584;23.164;2022-09-09T09:00:00;92885.56;;;27.93;54.90
10202;BME280;5143;42.584;23.164;2022-09-09T09:02:32;92887.38;;;27.52;56.35
10202;BME280;5143;42.584;23.164;2022-09-09T09:05:13;92888.88;;;28.09;54.39
10202;BME280;5143;42.584;23.164;2022-09-09T09:07:52;92882.66;;;28.30;54.34
10202;BME280;5143;42.584;23.164;2022-09-09T09:10:33;92891.25;;;28.22;55.01
10202;BME280;5143;42.584;23.164;2022-09-09T09:13:08;92890.34;;;28.20;54.99
10202;BME280;5143;42.584;23.164;2022-09-09T09:15:40;92889.47;;;28.55;53.74
10202;BME280;5143;42.584;23.164;2022-09-09T09:18:11;92890.22;;;28.37;55.15
10202;BME280;5143;42.584;23.164;2022-09-09T09:20:44;92882.53;;;28.37;54.46
10202;BME280;5143;42.584;23.164;2022-09-09T09:23:21;92880.75;;;28.42;55.56
10202;BME280;5143;42.584;23.164;2022-09-09T09:25:50;92887.84;;;28.72;55.65
10202;BME280;5143;42.584;23.164;2022-09-09T09:28:23;92888.41;;;28.03;55.65
10202;BME280;5143;42.584;23.164;2022-09-09T09:30:54;92884.75;;;28.39;55.58
10202;BME280;5143;42.584;23.164;2022-09-09T09:33:27;92880.81;;;27.86;55.22
10202;BME280;5143;42.584;23.164;2022-09-09T09:35:54;92862.78;;;26.98;57.45
10202;BME280;5143;42.584;23.164;2022-09-09T09:38:22;92863.59;;;27.44;56.57
10202;BME280;5143;42.584;23.164;2022-09-09T09:40:51;92865.31;;;27.39;56.45
10202;BME280;5143;42.584;23.164;2022-09-09T09:43:26;92868.84;;;27.86;57.68
10202;BME280;5143;42.584;23.164;2022-09-09T09:45:54;92864.56;;;27.75;55.80
10202;BME280;5143;42.584;23.164;2022-09-09T09:48:23;92865.22;;;28.22;55.53
10202;BME280;5143;42.584;23.164;2022-09-09T09:50:52;92869.22;;;28.28;54.55
10202;BME280;5143;42.584;23.164;2022-09-09T09:53:23;92866.66;;;27.38;55.63
10202;BME280;5143;42.584;23.164;2022-09-09T09:55:55;92863.22;;;27.30;56.60
10202;BME280;5143;42.584;23.164;2022-09-09T09:58:24;92857.25;;;27.17;57.42
10202;BME280;5143;42.584;23.164;2022-09-09T10:00:52;92865.84;;;27.19;57.35
10202;BME280;5143;42.584;23.164;2022-09-09T10:03:25;92867.44;;;26.24;59.42
10202;BME280;5143;42.584;23.164;2022-09-09T10:05:53;92867.25;;;26.05;61.49
10202;BME280;5143;42.584;23.164;2022-09-09T10:08:22;92875.47;;;26.37;62.43
10202;BME280;5143;42.584;23.164;2022-09-09T10:11:05;92879.94;;;26.06;62.08
10202;BME280;5143;42.584;23.164;2022-09-09T10:13:45;92889.63;;;26.05;62.06
10202;BME280;5143;42.584;23.164;2022-09-09T10:16:25;92886.00;;;25.95;62.92
10202;BME280;5143;42.584;23.164;2022-09-09T10:18:59;92886.81;;;25.71;64.07
10202;BME280;5143;42.584;23.164;2022-09-09T10:21:56;92879.22;;;25.64;67.74
10202;BME280;5143;42.584;23.164;2022-09-09T10:24:41;92879.44;;;26.00;66.58
10202;BME280;5143;42.584;23.164;2022-09-09T10:27:16;92881.75;;;26.11;65.52
10202;BME280;5143;42.584;23.164;2022-09-09T10:29:56;92884.38;;;26.09;66.46
10202;BME280;5143;42.584;23.164;2022-09-09T10:32:37;92886.66;;;25.86;67.97
10202;BME280;5143;42.584;23.164;2022-09-09T10:35:12;92888.84;;;24.96;69.92
10202;BME280;5143;42.584;23.164;2022-09-09T10:37:51;92891.59;;;25.04;72.89
10202;BME280;5143;42.584;23.164;2022-09-09T10:40:27;92894.03;;;25.24;73.64
10202;BME280;5143;42.584;23.164;2022-09-09T10:43:03;92897.34;;;25.31;71.77
10202;BME280;5143;42.584;23.164;2022-09-09T10:45:44;92889.63;;;25.21;74.11
10202;BME280;5143;42.584;23.164;2022-09-09T10:48:32;92892.66;;;25.08;76.33
10202;BME280;5143;42.584;23.164;2022-09-09T10:51:18;92898.78;;;25.39;76.26
10202;BME280;5143;42.584;23.164;2022-09-09T10:53:53;92891.94;;;25.57;75.60
10202;BME280;5143;42.584;23.164;2022-09-09T10:56:26;92894.03;;;25.57;72.54
10202;BME280;5143;42.584;23.164;2022-09-09T10:58:59;92904.59;;;25.83;72.72
10202;BME280;5143;42.584;23.164;2022-09-09T11:01:30;92908.06;;;26.08;71.20
10202;BME280;5143;42.584;23.164;2022-09-09T11:04:02;92902.50;;;26.25;70.86
10202;BME280;5143;42.584;23.164;2022-09-09T11:06:34;92893.47;;;26.17;71.67
10202;BME280;5143;42.584;23.164;2022-09-09T11:09:05;92895.09;;;26.37;70.39
10202;BME280;5143;42.584;23.164;2022-09-09T11:11:36;92892.06;;;26.26;70.51
10202;BME280;5143;42.584;23.164;2022-09-09T11:14:10;92897.13;;;26.37;70.67
10202;BME280;5143;42.584;23.164;2022-09-09T11:16:47;92895.91;;;26.48;69.73
10202;BME280;5143;42.584;23.164;2022-09-09T11:19:21;92885.50;;;26.75;69.09
10202;BME280;5143;42.584;23.164;2022-09-09T11:21:52;92880.56;;;26.83;69.53
10202;BME280;5143;42.584;23.164;2022-09-09T11:24:23;92867.44;;;26.85;69.36
10202;BME280;5143;42.584;23.164;2022-09-09T11:26:57;92858.47;;;26.70;73.34
10202;BME280;5143;42.584;23.164;2022-09-09T11:29:41;92855.03;;;27.15;73.57
10202;BME280;5143;42.584;23.164;2022-09-09T11:32:27;92851.28;;;27.03;71.10
10202;BME280;5143;42.584;23.164;2022-09-09T11:35:17;92844.47;;;26.70;71.24
10202;BME280;5143;42.584;23.164;2022-09-09T11:38:07;92831.31;;;26.89;73.18
10202;BME280;5143;42.584;23.164;2022-09-09T11:40:38;92806.38;;;26.84;71.40
10202;BME280;5143;42.584;23.164;2022-09-09T11:43:09;92797.28;;;26.93;70.70
10202;BME280;5143;42.584;23.164;2022-09-09T11:45:39;92799.22;;;26.73;71.13
10202;BME280;5143;42.584;23.164;2022-09-09T11:48:23;92814.25;;;26.95;69.11
10202;BME280;5143;42.584;23.164;2022-09-09T11:50:59;92818.03;;;26.63;70.93
10202;BME280;5143;42.584;23.164;2022-09-09T11:53:26;92824.63;;;25.97;70.85
10202;BME280;5143;42.584;23.164;2022-09-09T11:56:05;92820.94;;;26.12;71.30
10202;BME280;5143;42.584;23.164;2022-09-09T11:58:37;92815.13;;;26.44;71.40
10202;BME280;5143;42.584;23.164;2022-09-09T12:01:39;92806.44;;;26.06;69.66
10202;BME280;5143;42.584;23.164;2022-09-09T12:04:28;92811.47;;;26.24;71.69
10202;BME280;5143;42.584;23.164;2022-09-09T12:06:59;92810.53;;;26.39;69.85
10202;BME280;5143;42.584;23.164;2022-09-09T12:09:32;92809.84;;;26.48;69.22
10202;BME280;5143;42.584;23.164;2022-09-09T12:12:16;92813.78;;;26.18;67.44
10202;BME280;5143;42.584;23.164;2022-09-09T12:14:59;92811.13;;;25.86;70.65
10202;BME280;5143;42.584;23.164;2022-09-09T12:17:27;92811.78;;;26.11;72.85
10202;BME280;5143;42.584;23.164;2022-09-09T12:20:10;92808.50;;;26.22;70.13
10202;BME280;5143;42.584;23.164;2022-09-09T12:22:46;92808.59;;;26.15;69.50
10202;BME280;5143;42.584;23.164;2022-09-09T12:25:22;92791.75;;;25.71;70.94
10202;BME280;5143;42.584;23.164;2022-09-09T12:28:01;92809.56;;;25.58;69.63
10202;BME280;5143;42.584;23.164;2022-09-09T12:30:34;92797.22;;;25.61;73.63
10202;BME280;5143;42.584;23.164;2022-09-09T12:33:10;92802.25;;;25.80;73.27
10202;BME280;5143;42.584;23.164;2022-09-09T12:35:41;92798.94;;;25.74;70.86
10202;BME280;5143;42.584;23.164;2022-09-09T12:38:13;92799.09;;;25.93;71.11
10202;BME280;5143;42.584;23.164;2022-09-09T12:40:54;92803.91;;;25.83;70.60
10202;BME280;5143;42.584;23.164;2022-09-09T12:43:23;92798.53;;;25.77;72.63
10202;BME280;5143;42.584;23.164;2022-09-09T12:45:50;92800.78;;;25.79;71.65
10202;BME280;5143;42.584;23.164;2022-09-09T12:48:27;92805.78;;;25.98;71.33
10202;BME280;5143;42.584;23.164;2022-09-09T12:50:56;92794.84;;;25.75;72.73
10202;BME280;5143;42.584;23.164;2022-09-09T12:53:26;92790.31;;;25.79;72.93
10202;BME280;5143;42.584;23.164;2022-09-09T12:55:57;92787.44;;;25.70;75.56
10202;BME280;5143;42.584;23.164;2022-09-09T12:58:25;92786.88;;;25.54;76.49
10202;BME280;5143;42.584;23.164;2022-09-09T13:00:58;92776.44;;;25.30;75.31
10202;BME280;5143;42.584;23.164;2022-09-09T13:03:26;92775.97;;;25.41;75.38
10202;BME280;5143;42.584;23.164;2022-09-09T13:05:59;92769.38;;;25.71;74.78
10202;BME280;5143;42.584;23.164;2022-09-09T13:08:36;92763.72;;;25.37;75.10
10202;BME280;5143;42.584;23.164;2022-09-09T13:11:06;92762.22;;;25.18;75.77
10202;BME280;5143;42.584;23.164;2022-09-09T13:13:36;92761.00;;;25.29;77.62
10202;BME280;5143;42.584;23.164;2022-09-09T13:16:04;92755.22;;;25.10;79.71
10202;BME280;5143;42.584;23.164;2022-09-09T13:18:34;92752.19;;;25.15;78.63